sensor_id;sensor_type;location;lat;lon;timestamp;temperature;humidity
50013;DHT22;35901;48.694;9.476;2023-11-18T00:01:33;3.50;99.90
50013;DHT22;35901;48.694;9.476;2023-11-18T00:03:59;3.60;99.90
50013;DHT22;35901;48.694;9.476;2023-11-18T00:06:25;3.70;99.90
50013;DHT22;35901;48.694;9.476;2023-11-18T00:08:51;3.80;99.90
50013;DHT22;35901;48.694;9.476;2023-11-18T00:11:16;3.80;99.90
50013;DHT22;35901;48.694;9.476;2023-11-18T00:13:42;3.90;99.90
50013;DHT22;35901;48.694;9.476;2023-11-18T00:16:09;3.90;99.90
50013;DHT22;35901;48.694;9.476;2023-11-18T00:18:39;4.00;99.90
50013;DHT22;35901;48.694;9.476;2023-11-18T00:21:05;4.00;99.90
50013;DHT22;35901;48.694;9.476;2023-11-18T00:23:31;4.00;99.90
50013;DHT22;35901;48.694;9.476;2023-11-18T00:25:57;4.00;99.90
50013;DHT22;35901;48.694;9.476;2023-11-18T00:28:23;4.00;99.90
50013;DHT22;35901;48.694;9.476;2023-11-18T00:30:48;4.00;99.90
50013;DHT22;35901;48.694;9.476;2023-11-18T00:33:17;4.10;99.90
50013;DHT22;35901;48.694;9.476;2023-11-18T00:35:43;4.10;99.90
50013;DHT22;35901;48.694;9.476;2023-11-18T00:38:11;4.10;99.90
50013;DHT22;35901;48.694;9.476;2023-11-18T00:40:36;4.10;99.90
50013;DHT22;35901;48.694;9.476;2023-11-18T00:43:02;4.10;99.90
50013;DHT22;35901;48.694;9.476;2023-11-18T00:45:28;4.10;99.90
50013;DHT22;35901;48.694;9.476;2023-11-18T00:47:54;4.10;99.90
50013;DHT22;35901;48.694;9.476;2023-11-18T00:50:20;4.10;99.90
50013;DHT22;35901;48.694;9.476;2023-11-18T00:52:46;4.10;99.90
50013;DHT22;35901;48.694;9.476;2023-11-18T00:55:15;4.00;99.90
50013;DHT22;35901;48.694;9.476;2023-11-18T00:57:44;4.00;99.90
50013;DHT22;35901;48.694;9.476;2023-11-18T01:00:14;4.00;99.90
50013;DHT22;35901;48.694;9.476;2023-11-18T01:02:44;4.00;99.90
50013;DHT22;35901;48.694;9.476;2023-11-18T01:05:12;4.00;99.90
50013;DHT22;35901;48.694;9.476;2023-11-18T01:07:38;4.00;99.90
50013;DHT22;35901;48.694;9.476;2023-11-18T01:10:05;4.00;99.90
50013;DHT22;35901;48.694;9.476;2023-11-18T01:12:31;4.00;99.90
50013;DHT22;35901;48.694;9.476;2023-11-18T01:14:57;4.00;99.90
50013;DHT22;35901;48.694;9.476;2023-11-18T01:17:23;4.00;99.90
50013;DHT22;35901;48.694;9.476;2023-11-18T01:19:49;4.00;99.90
50013;DHT22;35901;48.694;9.476;2023-11-18T01:22:15;4.00;99.90
50013;DHT22;35901;48.694;9.476;2023-11-18T01:24:41;4.00;99.90
50013;DHT22;35901;48.694;9.476;2023-11-18T01:27:06;4.00;99.90
50013;DHT22;35901;48.694;9.476;2023-11-18T01:29:35;4.00;99.90
50013;DHT22;35901;48.694;9.476;2023-11-18T01:32:02;4.00;99.90
50013;DHT22;35901;48.694;9.476;2023-11-18T01:34:36;4.00;99.90
50013;DHT22;35901;48.694;9.476;2023-11-18T01:37:06;4.00;99.90
50013;DHT22;35901;48.694;9.476;2023-11-18T01:39:34;4.00;99.90
50013;DHT22;35901;48.694;9.476;2023-11-18T01:41:59;4.00;99.90
50013;DHT22;35901;48.694;9.476;2023-11-18T01:44:26;4.00;99.90
50013;DHT22;35901;48.694;9.476;2023-11-18T01:47:00;4.00;99.90
50013;DHT22;35901;48.694;9.476;2023-11-18T01:49:29;4.00;99.90
50013;DHT22;35901;48.694;9.476;2023-11-18T01:51:54;4.00;99.90
50013;DHT22;35901;48.694;9.476;2023-11-18T01:54:22;4.00;99.90
50013;DHT22;35901;48.694;9.476;2023-11-18T01:56:51;4.00;99.90
50013;DHT22;35901;48.694;9.476;2023-11-18T01:59:20;4.00;99.90
50013;DHT22;35901;48.694;9.476;2023-11-18T02:01:51;4.00;99.90
50013;DHT22;35901;48.694;9.476;2023-11-18T02:04:18;3.90;99.90
50013;DHT22;35901;48.694;9.476;2023-11-18T02:06:46;3.90;99.90
50013;DHT22;35901;48.694;9.476;2023-11-18T02:09:17;3.90;99.90
50013;DHT22;35901;48.694;9.476;2023-11-18T02:11:59;3.90;99.90
50013;DHT22;35901;48.694;9.476;2023-11-18T02:14:27;3.90;99.90
50013;DHT22;35901;48.694;9.476;2023-11-18T02:16:56;3.90;99.90
50013;DHT22;35901;48.694;9.476;2023-11-18T02:19:25;3.90;99.90
50013;DHT22;35901;48.694;9.476;2023-11-18T02:21:52;3.90;99.90
50013;DHT22;35901;48.694;9.476;2023-11-18T02:24:26;3.90;99.90
50013;DHT22;35901;48.694;9.476;2023-11-18T02:26:54;3.90;99.90
50013;DHT22;35901;48.694;9.476;2023-11-18T02:29:20;3.80;99.90
50013;DHT22;35901;48.694;9.476;2023-11-18T02:31:50;3.80;99.90
50013;DHT22;35901;48.694;9.476;2023-11-18T02:34:23;3.80;99.90
50013;DHT22;35901;48.694;9.476;2023-11-18T02:36:52;3.80;99.90
50013;DHT22;35901;48.694;9.476;2023-11-18T02:39:39;3.80;99.90
50013;DHT22;35901;48.694;9.476;2023-11-18T02:42:07;3.80;99.90
50013;DHT22;35901;48.694;9.476;2023-11-18T02:44:35;3.80;99.90
50013;DHT22;35901;48.694;9.476;2023-11-18T02:47:02;3.80;99.90
50013;DHT22;35901;48.694;9.476;2023-11-18T02:49:31;3.80;99.90
50013;DHT22;35901;48.694;9.476;2023-11-18T02:51:56;3.70;99.90
50013;DHT22;35901;48.694;9.476;2023-11-18T02:54:23;3.70;99.90
50013;DHT22;35901;48.694;9.476;2023-11-18T02:56:48;3.70;99.90
50013;DHT22;35901;48.694;9.476;2023-11-18T02:59:16;3.70;99.90
50013;DHT22;35901;48.694;9.476;2023-11-18T03:01:41;3.70;99.90
50013;DHT22;35901;48.694;9.476;2023-11-18T03:04:07;3.70;99.90
50013;DHT22;35901;48.694;9.476;2023-11-18T03:06:34;3.80;99.90
50013;DHT22;35901;48.694;9.476;2023-11-18T03:09:01;3.80;99.90
50013;DHT22;35901;48.694;9.476;2023-11-18T03:11:28;3.80;99.90
50013;DHT22;35901;48.694;9.476;2023-11-18T03:13:56;3.90;99.90
50013;DHT22;35901;48.694;9.476;2023-11-18T03:16:23;3.90;99.90
50013;DHT22;35901;48.694;9.476;2023-11-18T03:18:50;3.90;99.90
50013;DHT22;35901;48.694;9.476;2023-11-18T03:21:16;3.90;99.90
50013;DHT22;35901;48.694;9.476;2023-11-18T03:23:42;3.90;99.90
50013;DHT22;35901;48.694;9.476;2023-11-18T03:26:08;3.90;99.90
50013;DHT22;35901;48.694;9.476;2023-11-18T03:28:36;3.90;99.90
50013;DHT22;35901;48.694;9.476;2023-11-18T03:31:05;3.90;99.90
50013;DHT22;35901;48.694;9.476;2023-11-18T03:33:31;3.90;99.90
50013;DHT22;35901;48.694;9.476;2023-11-18T03:35:57;4.00;99.90
50013;DHT22;35901;48.694;9.476;2023-11-18T03:38:22;4.00;99.90
50013;DHT22;35901;48.694;9.476;2023-11-18T03:40:49;4.00;99.90
50013;DHT22;35901;48.694;9.476;2023-11-18T03:43:15;4.00;99.90
50013;DHT22;35901;48.694;9.476;2023-11-18T03:45:41;4.00;99.90
50013;DHT22;35901;48.694;9.476;2023-11-18T03:48:07;4.00;99.90
50013;DHT22;35901;48.694;9.476;2023-11-18T03:50:36;4.00;99.90
50013;DHT22;35901;48.694;9.476;2023-11-18T03:53:02;4.00;99.90
50013;DHT22;35901;48.694;9.476;2023-11-18T03:55:29;3.90;99.90
50013;DHT22;35901;48.694;9.476;2023-11-18T03:57:55;3.90;99.90
50013;DHT22;35901;48.694;9.476;2023-11-18T04:00:22;3.90;99.90
50013;DHT22;35901;48.694;9.476;2023-11-18T04:02:48;3.90;99.90
50013;DHT22;35901;48.694;9.476;2023-11-18T04:05:14;3.90;99.90
50013;DHT22;35901;48.694;9.476;2023-11-18T04:07:40;3.90;99.90
50013;DHT22;35901;48.694;9.476;2023-11-18T04:10:08;4.00;99.90
50013;DHT22;35901;48.694;9.476;2023-11-18T04:12:36;4.00;99.90
50013;DHT22;35901;48.694;9.476;2023-11-18T04:15:03;4.00;99.90
50013;DHT22;35901;48.694;9.476;2023-11-18T04:17:30;4.00;99.90
50013;DHT22;35901;48.694;9.476;2023-11-18T04:19:56;4.00;99.90
50013;DHT22;35901;48.694;9.476;2023-11-18T04:22:22;4.00;99.90
50013;DHT22;35901;48.694;9.476;2023-11-18T04:24:48;4.00;99.90
50013;DHT22;35901;48.694;9.476;2023-11-18T04:27:14;4.00;99.90
50013;DHT22;35901;48.694;9.476;2023-11-18T04:29:39;4.00;99.90
50013;DHT22;35901;48.694;9.476;2023-11-18T04:32:08;4.00;99.90
50013;DHT22;35901;48.694;9.476;2023-11-18T04:34:37;4.00;99.90
50013;DHT22;35901;48.694;9.476;2023-11-18T04:37:03;4.00;99.90
50013;DHT22;35901;48.694;9.476;2023-11-18T04:39:34;4.00;99.90
50013;DHT22;35901;48.694;9.476;2023-11-18T04:42:00;4.00;99.90
50013;DHT22;35901;48.694;9.476;2023-11-18T04:44:28;4.00;99.90
50013;DHT22;35901;48.694;9.476;2023-11-18T04:46:57;4.00;99.90
50013;DHT22;35901;48.694;9.476;2023-11-18T04:49:22;4.00;99.90
50013;DHT22;35901;48.694;9.476;2023-11-18T04:51:48;4.00;99.90
50013;DHT22;35901;48.694;9.476;2023-11-18T04:54:14;4.00;99.90
50013;DHT22;35901;48.694;9.476;2023-11-18T04:56:39;4.00;99.90
50013;DHT22;35901;48.694;9.476;2023-11-18T04:59:05;4.00;99.90
50013;DHT22;35901;48.694;9.476;2023-11-18T05:01:31;3.90;99.90
50013;DHT22;35901;48.694;9.476;2023-11-18T05:03:57;3.90;99.90
50013;DHT22;35901;48.694;9.476;2023-11-18T05:06:23;3.80;99.90
50013;DHT22;35901;48.694;9.476;2023-11-18T05:08:49;3.80;99.90
50013;DHT22;35901;48.694;9.476;2023-11-18T05:11:15;3.70;99.90
50013;DHT22;35901;48.694;9.476;2023-11-18T05:13:41;3.60;99.90
50013;DHT22;35901;48.694;9.476;2023-11-18T05:16:07;3.50;99.90
50013;DHT22;35901;48.694;9.476;2023-11-18T05:18:33;3.30;99.90
50013;DHT22;35901;48.694;9.476;2023-11-18T05:21:02;3.20;99.90
50013;DHT22;35901;48.694;9.476;2023-11-18T05:23:28;3.10;99.90
50013;DHT22;35901;48.694;9.476;2023-11-18T05:25:57;3.10;99.90
50013;DHT22;35901;48.694;9.476;2023-11-18T05:28:24;3.20;99.90
50013;DHT22;35901;48.694;9.476;2023-11-18T05:30:50;3.20;99.90
50013;DHT22;35901;48.694;9.476;2023-11-18T05:33:19;3.30;99.90
50013;DHT22;35901;48.694;9.476;2023-11-18T05:35:46;3.30;99.90
50013;DHT22;35901;48.694;9.476;2023-11-18T05:38:18;3.30;99.90
50013;DHT22;35901;48.694;9.476;2023-11-18T05:40:47;3.30;99.90
50013;DHT22;35901;48.694;9.476;2023-11-18T05:43:27;3.30;99.90
50013;DHT22;35901;48.694;9.476;2023-11-18T05:45:55;3.40;99.90
50013;DHT22;35901;48.694;9.476;2023-11-18T05:48:41;3.40;99.90
50013;DHT22;35901;48.694;9.476;2023-11-18T05:51:06;3.30;99.90
50013;DHT22;35901;48.694;9.476;2023-11-18T05:53:32;3.20;99.90
50013;DHT22;35901;48.694;9.476;2023-11-18T05:55:58;3.10;99.90
50013;DHT22;35901;48.694;9.476;2023-11-18T05:58:23;3.00;99.90
50013;DHT22;35901;48.694;9.476;2023-11-18T06:00:49;2.90;99.90
50013;DHT22;35901;48.694;9.476;2023-11-18T06:03:15;2.80;99.90
50013;DHT22;35901;48.694;9.476;2023-11-18T06:05:40;2.80;99.90
50013;DHT22;35901;48.694;9.476;2023-11-18T06:08:06;2.90;99.90
50013;DHT22;35901;48.694;9.476;2023-11-18T06:10:33;2.80;99.90
50013;DHT22;35901;48.694;9.476;2023-11-18T06:13:00;2.80;99.90
50013;DHT22;35901;48.694;9.476;2023-11-18T06:15:25;2.70;99.90
50013;DHT22;35901;48.694;9.476;2023-11-18T06:17:53;2.70;99.90
50013;DHT22;35901;48.694;9.476;2023-11-18T06:20:20;2.70;99.90
50013;DHT22;35901;48.694;9.476;2023-11-18T06:22:49;2.60;99.90
50013;DHT22;35901;48.694;9.476;2023-11-18T06:25:15;2.60;99.90
50013;DHT22;35901;48.694;9.476;2023-11-18T06:27:43;2.50;99.90
50013;DHT22;35901;48.694;9.476;2023-11-18T06:30:12;2.50;99.90
50013;DHT22;35901;48.694;9.476;2023-11-18T06:32:37;2.40;99.90
50013;DHT22;35901;48.694;9.476;2023-11-18T06:35:05;2.40;99.90
50013;DHT22;35901;48.694;9.476;2023-11-18T06:37:34;2.30;99.90
50013;DHT22;35901;48.694;9.476;2023-11-18T06:39:59;2.20;99.90
50013;DHT22;35901;48.694;9.476;2023-11-18T06:42:25;2.20;99.90
50013;DHT22;35901;48.694;9.476;2023-11-18T06:44:51;2.20;99.90
50013;DHT22;35901;48.694;9.476;2023-11-18T06:47:17;2.20;99.90
50013;DHT22;35901;48.694;9.476;2023-11-18T06:49:45;2.20;99.90
50013;DHT22;35901;48.694;9.476;2023-11-18T06:52:12;2.10;99.90
50013;DHT22;35901;48.694;9.476;2023-11-18T06:54:41;2.10;99.90
50013;DHT22;35901;48.694;9.476;2023-11-18T06:57:07;2.10;99.90
50013;DHT22;35901;48.694;9.476;2023-11-18T06:59:32;2.20;99.90
50013;DHT22;35901;48.694;9.476;2023-11-18T07:01:58;2.10;99.90
50013;DHT22;35901;48.694;9.476;2023-11-18T07:04:24;2.20;99.90
50013;DHT22;35901;48.694;9.476;2023-11-18T07:06:50;2.20;99.90
50013;DHT22;35901;48.694;9.476;2023-11-18T07:09:16;2.40;99.90
50013;DHT22;35901;48.694;9.476;2023-11-18T07:11:47;2.40;99.90
50013;DHT22;35901;48.694;9.476;2023-11-18T07:14:13;2.50;99.90
50013;DHT22;35901;48.694;9.476;2023-11-18T07:16:41;2.50;99.90
50013;DHT22;35901;48.694;9.476;2023-11-18T07:19:07;2.50;99.90
50013;DHT22;35901;48.694;9.476;2023-11-18T07:21:34;2.50;99.90
50013;DHT22;35901;48.694;9.476;2023-11-18T07:24:00;2.50;99.90
50013;DHT22;35901;48.694;9.476;2023-11-18T07:26:27;2.50;99.90
50013;DHT22;35901;48.694;9.476;2023-11-18T07:28:53;2.90;99.90
50013;DHT22;35901;48.694;9.476;2023-11-18T07:31:19;3.30;99.90
50013;DHT22;35901;48.694;9.476;2023-11-18T07:33:45;3.70;99.90
50013;DHT22;35901;48.694;9.476;2023-11-18T07:36:17;3.90;99.90
50013;DHT22;35901;48.694;9.476;2023-11-18T07:38:46;4.20;99.90
50013;DHT22;35901;48.694;9.476;2023-11-18T07:41:11;4.50;99.90
50013;DHT22;35901;48.694;9.476;2023-11-18T07:43:50;4.80;99.90
50013;DHT22;35901;48.694;9.476;2023-11-18T07:46:16;4.90;99.90
50013;DHT22;35901;48.694;9.476;2023-11-18T07:48:42;4.80;99.90
50013;DHT22;35901;48.694;9.476;2023-11-18T07:51:07;4.80;99.90
50013;DHT22;35901;48.694;9.476;2023-11-18T07:53:34;4.80;99.90
50013;DHT22;35901;48.694;9.476;2023-11-18T07:55:59;4.60;99.90
50013;DHT22;35901;48.694;9.476;2023-11-18T07:58:27;4.60;99.90
50013;DHT22;35901;48.694;9.476;2023-11-18T08:00:53;5.00;99.90
50013;DHT22;35901;48.694;9.476;2023-11-18T08:03:20;5.30;99.90
50013;DHT22;35901;48.694;9.476;2023-11-18T08:05:46;5.70;99.90
50013;DHT22;35901;48.694;9.476;2023-11-18T08:08:12;5.90;99.90
50013;DHT22;35901;48.694;9.476;2023-11-18T08:10:39;5.90;99.90
50013;DHT22;35901;48.694;9.476;2023-11-18T08:13:06;5.70;99.90
50013;DHT22;35901;48.694;9.476;2023-11-18T08:15:39;5.70;99.90
50013;DHT22;35901;48.694;9.476;2023-11-18T08:18:05;5.50;99.90
50013;DHT22;35901;48.694;9.476;2023-11-18T08:20:32;5.50;99.90
50013;DHT22;35901;48.694;9.476;2023-11-18T08:22:57;5.50;99.90
50013;DHT22;35901;48.694;9.476;2023-11-18T08:25:23;5.60;99.90
50013;DHT22;35901;48.694;9.476;2023-11-18T08:27:49;5.60;99.90
50013;DHT22;35901;48.694;9.476;2023-11-18T08:30:15;5.60;99.90
50013;DHT22;35901;48.694;9.476;2023-11-18T08:32:45;5.70;99.90
50013;DHT22;35901;48.694;9.476;2023-11-18T08:35:14;5.70;99.90
50013;DHT22;35901;48.694;9.476;2023-11-18T08:37:40;5.60;99.90
50013;DHT22;35901;48.694;9.476;2023-11-18T08:40:08;5.60;99.90
50013;DHT22;35901;48.694;9.476;2023-11-18T08:42:44;5.60;99.90
50013;DHT22;35901;48.694;9.476;2023-11-18T08:45:21;5.50;99.90
50013;DHT22;35901;48.694;9.476;2023-11-18T08:48:03;5.40;99.90
50013;DHT22;35901;48.694;9.476;2023-11-18T08:50:34;5.50;99.90
50013;DHT22;35901;48.694;9.476;2023-11-18T08:53:00;5.60;99.90
50013;DHT22;35901;48.694;9.476;2023-11-18T08:55:30;5.70;99.90
50013;DHT22;35901;48.694;9.476;2023-11-18T08:58:08;5.70;99.90
50013;DHT22;35901;48.694;9.476;2023-11-18T09:00:55;5.70;99.90
50013;DHT22;35901;48.694;9.476;2023-11-18T09:03:25;5.70;99.90
50013;DHT22;35901;48.694;9.476;2023-11-18T09:05:57;5.60;99.90
50013;DHT22;35901;48.694;9.476;2023-11-18T09:10:54;5.60;99.90
50013;DHT22;35901;48.694;9.476;2023-11-18T09:13:23;5.60;99.90
50013;DHT22;35901;48.694;9.476;2023-11-18T09:15:58;5.70;99.90
50013;DHT22;35901;48.694;9.476;2023-11-18T09:18:26;5.80;99.90
50013;DHT22;35901;48.694;9.476;2023-11-18T09:20:53;5.80;99.90
50013;DHT22;35901;48.694;9.476;2023-11-18T09:23:25;5.90;99.90
50013;DHT22;35901;48.694;9.476;2023-11-18T09:25:53;6.00;99.90
50013;DHT22;35901;48.694;9.476;2023-11-18T09:28:20;6.10;99.90
50013;DHT22;35901;48.694;9.476;2023-11-18T09:30:46;6.30;99.90
50013;DHT22;35901;48.694;9.476;2023-11-18T09:33:24;6.40;99.90
50013;DHT22;35901;48.694;9.476;2023-11-18T09:36:04;6.50;99.90
50013;DHT22;35901;48.694;9.476;2023-11-18T09:38:34;6.70;99.90
50013;DHT22;35901;48.694;9.476;2023-11-18T09:41:03;7.10;99.90
50013;DHT22;35901;48.694;9.476;2023-11-18T09:43:35;7.30;99.90
50013;DHT22;35901;48.694;9.476;2023-11-18T09:46:26;7.60;99.90
50013;DHT22;35901;48.694;9.476;2023-11-18T09:49:22;7.80;99.90
50013;DHT22;35901;48.694;9.476;2023-11-18T09:51:59;8.30;99.90
50013;DHT22;35901;48.694;9.476;2023-11-18T09:55:07;8.50;99.90
50013;DHT22;35901;48.694;9.476;2023-11-18T09:57:44;8.40;99.90
50013;DHT22;35901;48.694;9.476;2023-11-18T10:00:15;8.20;99.90
50013;DHT22;35901;48.694;9.476;2023-11-18T10:02:58;8.20;99.90
50013;DHT22;35901;48.694;9.476;2023-11-18T10:05:27;8.30;99.90
50013;DHT22;35901;48.694;9.476;2023-11-18T10:07:55;8.20;99.90
50013;DHT22;35901;48.694;9.476;2023-11-18T10:10:24;8.40;99.90
50013;DHT22;35901;48.694;9.476;2023-11-18T10:12:52;8.60;99.90
50013;DHT22;35901;48.694;9.476;2023-11-18T10:15:20;8.50;99.90
50013;DHT22;35901;48.694;9.476;2023-11-18T10:17:49;8.50;99.90
50013;DHT22;35901;48.694;9.476;2023-11-18T10:20:42;8.50;99.90
50013;DHT22;35901;48.694;9.476;2023-11-18T10:23:10;8.50;99.90
50013;DHT22;35901;48.694;9.476;2023-11-18T10:25:49;8.60;99.90
50013;DHT22;35901;48.694;9.476;2023-11-18T10:28:28;8.30;99.90
50013;DHT22;35901;48.694;9.476;2023-11-18T10:33:27;8.20;99.90
50013;DHT22;35901;48.694;9.476;2023-11-18T10:35:58;8.20;99.90
50013;DHT22;35901;48.694;9.476;2023-11-18T10:38:24;8.10;99.90
50013;DHT22;35901;48.694;9.476;2023-11-18T10:40:55;8.00;99.90
50013;DHT22;35901;48.694;9.476;2023-11-18T10:43:23;7.90;99.90
50013;DHT22;35901;48.694;9.476;2023-11-18T10:46:10;8.00;99.90
50013;DHT22;35901;48.694;9.476;2023-11-18T10:48:44;8.10;99.90
50013;DHT22;35901;48.694;9.476;2023-11-18T10:51:14;8.20;99.90
50013;DHT22;35901;48.694;9.476;2023-11-18T10:53:42;8.10;99.90
50013;DHT22;35901;48.694;9.476;2023-11-18T10:56:29;7.90;99.90
50013;DHT22;35901;48.694;9.476;2023-11-18T10:59:13;7.80;99.90
50013;DHT22;35901;48.694;9.476;2023-11-18T11:01:42;7.90;99.90
50013;DHT22;35901;48.694;9.476;2023-11-18T11:04:12;7.90;99.90
50013;DHT22;35901;48.694;9.476;2023-11-18T11:10:31;8.00;99.90
50013;DHT22;35901;48.694;9.476;2023-11-18T11:13:00;8.10;99.90
50013;DHT22;35901;48.694;9.476;2023-11-18T11:15:31;8.10;99.90
50013;DHT22;35901;48.694;9.476;2023-11-18T11:18:08;8.10;99.90
50013;DHT22;35901;48.694;9.476;2023-11-18T11:20:45;8.20;99.90
50013;DHT22;35901;48.694;9.476;2023-11-18T11:26:33;8.40;99.90
50013;DHT22;35901;48.694;9.476;2023-11-18T11:32:24;8.30;99.90
50013;DHT22;35901;48.694;9.476;2023-11-18T11:34:56;8.30;99.90
50013;DHT22;35901;48.694;9.476;2023-11-18T11:37:34;8.30;99.90
50013;DHT22;35901;48.694;9.476;2023-11-18T11:40:00;8.50;99.90
50013;DHT22;35901;48.694;9.476;2023-11-18T11:42:33;8.40;99.90
50013;DHT22;35901;48.694;9.476;2023-11-18T11:45:00;8.40;99.90
50013;DHT22;35901;48.694;9.476;2023-11-18T11:47:28;8.40;99.90
50013;DHT22;35901;48.694;9.476;2023-11-18T11:50:27;8.50;99.90
50013;DHT22;35901;48.694;9.476;2023-11-18T11:53:05;8.40;99.90
50013;DHT22;35901;48.694;9.476;2023-11-18T11:55:40;8.40;99.90
50013;DHT22;35901;48.694;9.476;2023-11-18T11:58:26;8.40;99.90
50013;DHT22;35901;48.694;9.476;2023-11-18T12:00:52;8.20;99.90
50013;DHT22;35901;48.694;9.476;2023-11-18T12:03:21;8.30;99.90
50013;DHT22;35901;48.694;9.476;2023-11-18T12:05:49;8.30;99.90
50013;DHT22;35901;48.694;9.476;2023-11-18T12:08:36;8.30;99.90
50013;DHT22;35901;48.694;9.476;2023-11-18T12:11:05;8.30;99.90
50013;DHT22;35901;48.694;9.476;2023-11-18T12:13:36;8.20;99.90
50013;DHT22;35901;48.694;9.476;2023-11-18T12:16:05;8.20;99.90
50013;DHT22;35901;48.694;9.476;2023-11-18T12:18:31;8.20;99.90
50013;DHT22;35901;48.694;9.476;2023-11-18T12:21:02;8.30;99.90
50013;DHT22;35901;48.694;9.476;2023-11-18T12:23:29;8.30;99.90
50013;DHT22;35901;48.694;9.476;2023-11-18T12:25:56;8.40;99.90
50013;DHT22;35901;48.694;9.476;2023-11-18T12:28:32;8.40;99.90
50013;DHT22;35901;48.694;9.476;2023-11-18T12:31:04;8.30;99.90
50013;DHT22;35901;48.694;9.476;2023-11-18T12:41:40;8.20;99.90
50013;DHT22;35901;48.694;9.476;2023-11-18T12:46:54;8.20;99.90
50013;DHT22;35901;48.694;9.476;2023-11-18T12:49:22;8.20;99.90
50013;DHT22;35901;48.694;9.476;2023-11-18T12:51:53;8.20;99.90
50013;DHT22;35901;48.694;9.476;2023-11-18T12:54:28;8.20;99.90
50013;DHT22;35901;48.694;9.476;2023-11-18T12:56:57;8.10;99.90
50013;DHT22;35901;48.694;9.476;2023-11-18T12:59:22;8.20;99.90
50013;DHT22;35901;48.694;9.476;2023-11-18T13:01:51;8.30;99.90
50013;DHT22;35901;48.694;9.476;2023-11-18T13:04:22;8.30;99.90
50013;DHT22;35901;48.694;9.476;2023-11-18T13:06:50;8.30;99.90
50013;DHT22;35901;48.694;9.476;2023-11-18T13:09:17;8.20;99.90
50013;DHT22;35901;48.694;9.476;2023-11-18T13:11:58;8.20;99.90
50013;DHT22;35901;48.694;9.476;2023-11-18T13:14:26;8.20;99.90
50013;DHT22;35901;48.694;9.476;2023-11-18T13:16:55;8.30;99.90
50013;DHT22;35901;48.694;9.476;2023-11-18T13:19:27;8.30;99.90
50013;DHT22;35901;48.694;9.476;2023-11-18T13:22:00;8.30;99.90
50013;DHT22;35901;48.694;9.476;2023-11-18T13:24:26;8.20;99.90
50013;DHT22;35901;48.694;9.476;2023-11-18T13:26:54;8.20;99.90
50013;DHT22;35901;48.694;9.476;2023-11-18T13:29:22;8.20;99.90
50013;DHT22;35901;48.694;9.476;2023-11-18T13:31:49;8.10;99.90
50013;DHT22;35901;48.694;9.476;2023-11-18T13:34:18;8.00;99.90
50013;DHT22;35901;48.694;9.476;2023-11-18T13:36:44;7.90;99.90
50013;DHT22;35901;48.694;9.476;2023-11-18T13:39:17;7.80;99.90
50013;DHT22;35901;48.694;9.476;2023-11-18T13:41:44;7.80;99.90
50013;DHT22;35901;48.694;9.476;2023-11-18T13:44:11;7.70;99.90
50013;DHT22;35901;48.694;9.476;2023-11-18T13:46:41;7.70;99.90
50013;DHT22;35901;48.694;9.476;2023-11-18T13:49:07;7.60;99.90
50013;DHT22;35901;48.694;9.476;2023-11-18T13:51:34;7.60;99.90
50013;DHT22;35901;48.694;9.476;2023-11-18T13:54:02;7.50;99.90
50013;DHT22;35901;48.694;9.476;2023-11-18T13:56:29;7.50;99.90
50013;DHT22;35901;48.694;9.476;2023-11-18T13:58:56;7.50;99.90
50013;DHT22;35901;48.694;9.476;2023-11-18T14:01:22;7.50;99.90
50013;DHT22;35901;48.694;9.476;2023-11-18T14:03:48;7.50;99.90
50013;DHT22;35901;48.694;9.476;2023-11-18T14:06:14;7.40;99.90
50013;DHT22;35901;48.694;9.476;2023-11-18T14:08:43;7.40;99.90
50013;DHT22;35901;48.694;9.476;2023-11-18T14:11:10;7.40;99.90
50013;DHT22;35901;48.694;9.476;2023-11-18T14:13:36;7.40;99.90
50013;DHT22;35901;48.694;9.476;2023-11-18T14:16:03;7.40;99.90
50013;DHT22;35901;48.694;9.476;2023-11-18T14:18:29;7.40;99.90
50013;DHT22;35901;48.694;9.476;2023-11-18T14:20:55;7.40;99.90
50013;DHT22;35901;48.694;9.476;2023-11-18T14:23:21;7.40;99.90
50013;DHT22;35901;48.694;9.476;2023-11-18T14:25:48;7.40;99.90
50013;DHT22;35901;48.694;9.476;2023-11-18T14:28:14;7.40;99.90
50013;DHT22;35901;48.694;9.476;2023-11-18T14:30:40;7.30;99.90
50013;DHT22;35901;48.694;9.476;2023-11-18T14:33:07;7.30;99.90
50013;DHT22;35901;48.694;9.476;2023-11-18T14:35:33;7.20;99.90
50013;DHT22;35901;48.694;9.476;2023-11-18T14:38:00;7.20;99.90
50013;DHT22;35901;48.694;9.476;2023-11-18T14:40:26;7.20;99.90
50013;DHT22;35901;48.694;9.476;2023-11-18T14:42:53;7.10;99.90
50013;DHT22;35901;48.694;9.476;2023-11-18T14:45:20;7.20;99.90
50013;DHT22;35901;48.694;9.476;2023-11-18T14:47:47;7.20;99.90
50013;DHT22;35901;48.694;9.476;2023-11-18T14:50:19;7.20;99.90
50013;DHT22;35901;48.694;9.476;2023-11-18T14:52:49;7.20;99.90
50013;DHT22;35901;48.694;9.476;2023-11-18T14:55:18;7.20;99.90
50013;DHT22;35901;48.694;9.476;2023-11-18T14:57:44;7.20;99.90
50013;DHT22;35901;48.694;9.476;2023-11-18T15:00:11;7.10;99.90
50013;DHT22;35901;48.694;9.476;2023-11-18T15:03:06;7.10;99.90
50013;DHT22;35901;48.694;9.476;2023-11-18T15:05:32;7.10;99.90
50013;DHT22;35901;48.694;9.476;2023-11-18T15:08:00;7.10;99.90
50013;DHT22;35901;48.694;9.476;2023-11-18T15:10:27;7.10;99.90
50013;DHT22;35901;48.694;9.476;2023-11-18T15:12:59;7.10;99.90
50013;DHT22;35901;48.694;9.476;2023-11-18T15:15:28;7.00;99.90
50013;DHT22;35901;48.694;9.476;2023-11-18T15:17:58;7.00;99.90
50013;DHT22;35901;48.694;9.476;2023-11-18T15:20:24;7.00;99.90
50013;DHT22;35901;48.694;9.476;2023-11-18T15:22:51;7.00;99.90
50013;DHT22;35901;48.694;9.476;2023-11-18T15:25:17;6.90;99.90
50013;DHT22;35901;48.694;9.476;2023-11-18T15:27:46;6.90;99.90
50013;DHT22;35901;48.694;9.476;2023-11-18T15:30:13;6.90;99.90
50013;DHT22;35901;48.694;9.476;2023-11-18T15:32:40;6.80;99.90
50013;DHT22;35901;48.694;9.476;2023-11-18T15:35:07;6.90;99.90
50013;DHT22;35901;48.694;9.476;2023-11-18T15:37:36;6.90;99.90
50013;DHT22;35901;48.694;9.476;2023-11-18T15:40:07;6.90;99.90
50013;DHT22;35901;48.694;9.476;2023-11-18T15:42:43;6.90;99.90
50013;DHT22;35901;48.694;9.476;2023-11-18T15:45:15;7.00;99.90
50013;DHT22;35901;48.694;9.476;2023-11-18T15:47:42;7.00;99.90
50013;DHT22;35901;48.694;9.476;2023-11-18T15:50:09;7.00;99.90
50013;DHT22;35901;48.694;9.476;2023-11-18T15:52:44;6.90;99.90
50013;DHT22;35901;48.694;9.476;2023-11-18T15:55:10;6.90;99.90
50013;DHT22;35901;48.694;9.476;2023-11-18T15:57:46;6.90;99.90
50013;DHT22;35901;48.694;9.476;2023-11-18T16:00:19;6.90;99.90
50013;DHT22;35901;48.694;9.476;2023-11-18T16:02:54;6.80;99.90
50013;DHT22;35901;48.694;9.476;2023-11-18T16:05:22;6.80;99.90
50013;DHT22;35901;48.694;9.476;2023-11-18T16:07:49;6.80;99.90
50013;DHT22;35901;48.694;9.476;2023-11-18T16:10:20;6.80;99.90
50013;DHT22;35901;48.694;9.476;2023-11-18T16:12:53;6.90;99.90
50013;DHT22;35901;48.694;9.476;2023-11-18T16:15:24;6.90;99.90
50013;DHT22;35901;48.694;9.476;2023-11-18T16:17:50;6.90;99.90
50013;DHT22;35901;48.694;9.476;2023-11-18T16:20:17;6.80;99.90
50013;DHT22;35901;48.694;9.476;2023-11-18T16:22:44;6.80;99.90